sensor_id;sensor_type;location;lat;lon;timestamp;P1;durP1;ratioP1;P2;durP2;ratioP2
17696;SDS011;8967;47.984;7.842;2023-02-11T00:00:20;30.90;;;14.27;;
17696;SDS011;8967;47.984;7.842;2023-02-11T00:02:49;30.23;;;13.40;;
17696;SDS011;8967;47.984;7.842;2023-02-11T00:05:17;27.43;;;14.03;;
17696;SDS011;8967;47.984;7.842;2023-02-11T00:07:44;29.43;;;13.37;;
17696;SDS011;8967;47.984;7.842;2023-02-11T00:10:14;25.03;;;12.13;;
17696;SDS011;8967;47.984;7.842;2023-02-11T00:12:40;27.87;;;12.50;;
17696;SDS011;8967;47.984;7.842;2023-02-11T00:15:10;26.27;;;12.87;;
17696;SDS011;8967;47.984;7.842;2023-02-11T00:17:37;29.90;;;13.30;;
17696;SDS011;8967;47.984;7.842;2023-02-11T00:20:04;28.20;;;14.30;;
17696;SDS011;8967;47.984;7.842;2023-02-11T00:22:33;26.07;;;12.77;;
17696;SDS011;8967;47.984;7.842;2023-02-11T00:24:59;26.97;;;13.83;;
17696;SDS011;8967;47.984;7.842;2023-02-11T00:27:27;27.17;;;14.03;;
17696;SDS011;8967;47.984;7.842;2023-02-11T00:29:56;26.23;;;12.87;;
17696;SDS011;8967;47.984;7.842;2023-02-11T00:32:24;27.37;;;13.37;;
17696;SDS011;8967;47.984;7.842;2023-02-11T00:34:51;25.67;;;13.83;;
17696;SDS011;8967;47.984;7.842;2023-02-11T00:37:19;26.53;;;13.87;;
17696;SDS011;8967;47.984;7.842;2023-02-11T00:39:47;33.53;;;15.07;;
17696;SDS011;8967;47.984;7.842;2023-02-11T00:42:15;28.47;;;12.77;;
17696;SDS011;8967;47.984;7.842;2023-02-11T00:44:43;30.87;;;14.70;;
17696;SDS011;8967;47.984;7.842;2023-02-11T00:47:10;32.17;;;14.70;;
17696;SDS011;8967;47.984;7.842;2023-02-11T00:49:37;30.03;;;14.27;;
17696;SDS011;8967;47.984;7.842;2023-02-11T00:52:05;32.37;;;15.37;;
17696;SDS011;8967;47.984;7.842;2023-02-11T00:54:33;28.57;;;14.20;;
17696;SDS011;8967;47.984;7.842;2023-02-11T00:57:03;29.67;;;14.27;;
17696;SDS011;8967;47.984;7.842;2023-02-11T00:59:30;30.43;;;14.97;;
17696;SDS011;8967;47.984;7.842;2023-02-11T01:01:59;29.77;;;15.13;;
17696;SDS011;8967;47.984;7.842;2023-02-11T01:04:28;31.40;;;15.10;;
17696;SDS011;8967;47.984;7.842;2023-02-11T01:06:55;30.93;;;14.27;;
17696;SDS011;8967;47.984;7.842;2023-02-11T01:09:24;32.33;;;14.57;;
17696;SDS011;8967;47.984;7.842;2023-02-11T01:11:50;27.93;;;13.50;;
17696;SDS011;8967;47.984;7.842;2023-02-11T01:14:19;30.70;;;14.13;;
17696;SDS011;8967;47.984;7.842;2023-02-11T01:16:48;27.57;;;13.20;;
17696;SDS011;8967;47.984;7.842;2023-02-11T01:19:15;27.97;;;12.90;;
17696;SDS011;8967;47.984;7.842;2023-02-11T01:21:44;24.87;;;13.00;;
17696;SDS011;8967;47.984;7.842;2023-02-11T01:24:11;29.77;;;15.03;;
17696;SDS011;8967;47.984;7.842;2023-02-11T01:26:38;30.67;;;14.33;;
17696;SDS011;8967;47.984;7.842;2023-02-11T01:29:05;31.73;;;14.13;;
17696;SDS011;8967;47.984;7.842;2023-02-11T01:31:34;29.17;;;13.50;;
17696;SDS011;8967;47.984;7.842;2023-02-11T01:34:01;26.63;;;13.40;;
17696;SDS011;8967;47.984;7.842;2023-02-11T01:36:28;30.77;;;14.27;;
17696;SDS011;8967;47.984;7.842;2023-02-11T01:38:55;24.83;;;13.50;;
17696;SDS011;8967;47.984;7.842;2023-02-11T01:41:22;30.67;;;13.73;;
17696;SDS011;8967;47.984;7.842;2023-02-11T01:43:49;27.83;;;13.67;;
17696;SDS011;8967;47.984;7.842;2023-02-11T01:46:19;28.90;;;15.23;;
17696;SDS011;8967;47.984;7.842;2023-02-11T01:48:57;28.77;;;14.87;;
17696;SDS011;8967;47.984;7.842;2023-02-11T01:51:28;29.97;;;14.17;;
17696;SDS011;8967;47.984;7.842;2023-02-11T01:54:01;31.63;;;13.90;;
17696;SDS011;8967;47.984;7.842;2023-02-11T01:56:47;28.33;;;13.20;;
17696;SDS011;8967;47.984;7.842;2023-02-11T01:59:43;24.47;;;13.20;;
17696;SDS011;8967;47.984;7.842;2023-02-11T02:02:14;25.23;;;13.53;;
17696;SDS011;8967;47.984;7.842;2023-02-11T02:04:47;26.50;;;12.67;;
17696;SDS011;8967;47.984;7.842;2023-02-11T02:07:19;26.17;;;13.23;;
17696;SDS011;8967;47.984;7.842;2023-02-11T02:09:52;28.27;;;13.47;;
17696;SDS011;8967;47.984;7.842;2023-02-11T02:12:23;22.17;;;11.87;;
17696;SDS011;8967;47.984;7.842;2023-02-11T02:15:09;26.13;;;12.43;;
17696;SDS011;8967;47.984;7.842;2023-02-11T02:17:45;27.33;;;11.87;;
17696;SDS011;8967;47.984;7.842;2023-02-11T02:20:27;26.77;;;12.93;;
17696;SDS011;8967;47.984;7.842;2023-02-11T02:29:25;23.87;;;11.33;;
17696;SDS011;8967;47.984;7.842;2023-02-11T02:35:03;25.27;;;11.47;;
17696;SDS011;8967;47.984;7.842;2023-02-11T02:37:41;27.30;;;11.87;;
17696;SDS011;8967;47.984;7.842;2023-02-11T02:40:16;25.83;;;11.90;;
17696;SDS011;8967;47.984;7.842;2023-02-11T02:42:48;25.53;;;11.40;;
17696;SDS011;8967;47.984;7.842;2023-02-11T02:45:16;22.20;;;12.13;;
17696;SDS011;8967;47.984;7.842;2023-02-11T02:47:44;23.50;;;11.83;;
17696;SDS011;8967;47.984;7.842;2023-02-11T02:50:11;25.03;;;12.63;;
17696;SDS011;8967;47.984;7.842;2023-02-11T02:52:45;20.67;;;10.87;;
17696;SDS011;8967;47.984;7.842;2023-02-11T02:55:29;24.67;;;12.43;;
17696;SDS011;8967;47.984;7.842;2023-02-11T03:01:07;22.53;;;11.40;;
17696;SDS011;8967;47.984;7.842;2023-02-11T03:03:46;26.67;;;11.20;;
17696;SDS011;8967;47.984;7.842;2023-02-11T03:06:16;25.13;;;11.50;;
17696;SDS011;8967;47.984;7.842;2023-02-11T03:08:55;24.33;;;11.53;;
17696;SDS011;8967;47.984;7.842;2023-02-11T03:11:28;22.47;;;11.07;;
17696;SDS011;8967;47.984;7.842;2023-02-11T03:13:55;26.50;;;12.20;;
17696;SDS011;8967;47.984;7.842;2023-02-11T03:16:24;27.03;;;11.90;;
17696;SDS011;8967;47.984;7.842;2023-02-11T03:18:55;21.23;;;11.43;;
17696;SDS011;8967;47.984;7.842;2023-02-11T03:21:28;24.13;;;12.50;;
17696;SDS011;8967;47.984;7.842;2023-02-11T03:23:59;22.30;;;11.63;;
17696;SDS011;8967;47.984;7.842;2023-02-11T03:26:31;25.07;;;11.53;;
17696;SDS011;8967;47.984;7.842;2023-02-11T03:29:03;25.73;;;12.87;;
17696;SDS011;8967;47.984;7.842;2023-02-11T03:31:36;24.17;;;12.17;;
17696;SDS011;8967;47.984;7.842;2023-02-11T03:34:12;24.93;;;11.30;;
17696;SDS011;8967;47.984;7.842;2023-02-11T03:36:44;21.20;;;11.07;;
17696;SDS011;8967;47.984;7.842;2023-02-11T03:39:18;22.53;;;11.13;;
17696;SDS011;8967;47.984;7.842;2023-02-11T03:41:49;24.23;;;10.90;;
17696;SDS011;8967;47.984;7.842;2023-02-11T03:44:18;21.67;;;9.83;;
17696;SDS011;8967;47.984;7.842;2023-02-11T03:46:47;19.77;;;9.97;;
17696;SDS011;8967;47.984;7.842;2023-02-11T03:49:19;21.93;;;10.70;;
17696;SDS011;8967;47.984;7.842;2023-02-11T03:51:50;20.60;;;10.10;;
17696;SDS011;8967;47.984;7.842;2023-02-11T03:54:23;19.90;;;9.53;;
17696;SDS011;8967;47.984;7.842;2023-02-11T03:56:53;20.27;;;9.10;;
17696;SDS011;8967;47.984;7.842;2023-02-11T03:59:22;19.43;;;9.77;;
17696;SDS011;8967;47.984;7.842;2023-02-11T04:01:49;20.13;;;9.33;;
17696;SDS011;8967;47.984;7.842;2023-02-11T04:04:20;20.27;;;9.20;;
17696;SDS011;8967;47.984;7.842;2023-02-11T04:06:49;24.03;;;10.73;;
17696;SDS011;8967;47.984;7.842;2023-02-11T04:09:16;20.33;;;9.77;;
17696;SDS011;8967;47.984;7.842;2023-02-11T04:11:45;21.37;;;9.50;;
17696;SDS011;8967;47.984;7.842;2023-02-11T04:14:12;24.53;;;11.87;;
17696;SDS011;8967;47.984;7.842;2023-02-11T04:16:39;24.43;;;11.80;;
17696;SDS011;8967;47.984;7.842;2023-02-11T04:19:06;21.10;;;10.80;;
17696;SDS011;8967;47.984;7.842;2023-02-11T04:21:34;22.57;;;11.03;;
17696;SDS011;8967;47.984;7.842;2023-02-11T04:24:01;23.13;;;10.43;;
17696;SDS011;8967;47.984;7.842;2023-02-11T04:26:28;20.40;;;10.47;;
17696;SDS011;8967;47.984;7.842;2023-02-11T04:28:55;20.20;;;10.53;;
17696;SDS011;8967;47.984;7.842;2023-02-11T04:31:22;21.07;;;9.83;;
17696;SDS011;8967;47.984;7.842;2023-02-11T04:33:49;20.27;;;9.97;;
17696;SDS011;8967;47.984;7.842;2023-02-11T04:36:15;20.43;;;10.03;;
17696;SDS011;8967;47.984;7.842;2023-02-11T04:38:44;22.17;;;10.30;;
17696;SDS011;8967;47.984;7.842;2023-02-11T04:41:11;18.83;;;9.73;;
17696;SDS011;8967;47.984;7.842;2023-02-11T04:43:38;17.90;;;9.10;;
17696;SDS011;8967;47.984;7.842;2023-02-11T04:46:07;21.03;;;9.80;;
17696;SDS011;8967;47.984;7.842;2023-02-11T04:48:34;22.50;;;9.63;;
17696;SDS011;8967;47.984;7.842;2023-02-11T04:51:01;21.77;;;9.83;;
17696;SDS011;8967;47.984;7.842;2023-02-11T04:53:28;16.53;;;8.73;;
17696;SDS011;8967;47.984;7.842;2023-02-11T04:55:56;21.63;;;9.40;;
17696;SDS011;8967;47.984;7.842;2023-02-11T04:58:23;21.50;;;9.47;;
17696;SDS011;8967;47.984;7.842;2023-02-11T05:00:50;20.23;;;9.10;;
17696;SDS011;8967;47.984;7.842;2023-02-11T05:03:17;18.23;;;8.90;;
17696;SDS011;8967;47.984;7.842;2023-02-11T05:05:44;19.07;;;8.27;;
17696;SDS011;8967;47.984;7.842;2023-02-11T05:08:11;15.57;;;7.73;;
17696;SDS011;8967;47.984;7.842;2023-02-11T05:10:38;14.03;;;8.13;;
17696;SDS011;8967;47.984;7.842;2023-02-11T05:13:06;18.03;;;8.87;;
17696;SDS011;8967;47.984;7.842;2023-02-11T05:15:33;16.73;;;7.90;;
17696;SDS011;8967;47.984;7.842;2023-02-11T05:18:00;19.57;;;9.13;;
17696;SDS011;8967;47.984;7.842;2023-02-11T05:20:27;20.23;;;9.23;;
17696;SDS011;8967;47.984;7.842;2023-02-11T05:22:54;18.10;;;8.80;;
17696;SDS011;8967;47.984;7.842;2023-02-11T05:25:21;20.57;;;8.97;;
17696;SDS011;8967;47.984;7.842;2023-02-11T05:27:48;19.60;;;9.77;;
17696;SDS011;8967;47.984;7.842;2023-02-11T05:30:16;17.10;;;8.53;;
17696;SDS011;8967;47.984;7.842;2023-02-11T05:32:43;16.80;;;8.93;;
17696;SDS011;8967;47.984;7.842;2023-02-11T05:35:10;17.87;;;8.03;;
17696;SDS011;8967;47.984;7.842;2023-02-11T05:37:36;18.53;;;8.67;;
17696;SDS011;8967;47.984;7.842;2023-02-11T05:40:04;17.70;;;8.63;;
17696;SDS011;8967;47.984;7.842;2023-02-11T05:42:31;21.03;;;8.53;;
17696;SDS011;8967;47.984;7.842;2023-02-11T05:44:58;18.50;;;8.73;;
17696;SDS011;8967;47.984;7.842;2023-02-11T05:47:26;13.43;;;7.73;;
17696;SDS011;8967;47.984;7.842;2023-02-11T05:49:53;18.13;;;8.40;;
17696;SDS011;8967;47.984;7.842;2023-02-11T05:52:23;17.20;;;8.47;;
17696;SDS011;8967;47.984;7.842;2023-02-11T05:54:50;15.87;;;8.20;;
17696;SDS011;8967;47.984;7.842;2023-02-11T05:57:17;17.67;;;8.10;;
17696;SDS011;8967;47.984;7.842;2023-02-11T05:59:44;15.87;;;7.97;;
17696;SDS011;8967;47.984;7.842;2023-02-11T06:02:11;18.33;;;8.30;;
17696;SDS011;8967;47.984;7.842;2023-02-11T06:04:39;16.63;;;8.57;;
17696;SDS011;8967;47.984;7.842;2023-02-11T06:07:08;14.83;;;7.77;;
17696;SDS011;8967;47.984;7.842;2023-02-11T06:09:35;20.03;;;8.83;;
17696;SDS011;8967;47.984;7.842;2023-02-11T06:12:03;18.47;;;8.30;;
17696;SDS011;8967;47.984;7.842;2023-02-11T06:14:31;17.90;;;7.03;;
17696;SDS011;8967;47.984;7.842;2023-02-11T06:16:58;15.57;;;7.27;;
17696;SDS011;8967;47.984;7.842;2023-02-11T06:19:25;12.07;;;6.77;;
17696;SDS011;8967;47.984;7.842;2023-02-11T06:21:53;14.60;;;7.87;;
17696;SDS011;8967;47.984;7.842;2023-02-11T06:24:21;16.23;;;6.93;;
17696;SDS011;8967;47.984;7.842;2023-02-11T06:26:48;14.80;;;7.67;;
17696;SDS011;8967;47.984;7.842;2023-02-11T06:29:15;16.80;;;7.67;;
17696;SDS011;8967;47.984;7.842;2023-02-11T06:31:42;16.37;;;8.27;;
17696;SDS011;8967;47.984;7.842;2023-02-11T06:34:09;17.47;;;7.80;;
17696;SDS011;8967;47.984;7.842;2023-02-11T06:36:38;14.37;;;7.07;;
17696;SDS011;8967;47.984;7.842;2023-02-11T06:39:08;19.17;;;7.50;;
17696;SDS011;8967;47.984;7.842;2023-02-11T06:41:37;17.27;;;8.07;;
17696;SDS011;8967;47.984;7.842;2023-02-11T06:44:04;16.13;;;7.70;;
17696;SDS011;8967;47.984;7.842;2023-02-11T06:46:33;16.87;;;8.10;;
17696;SDS011;8967;47.984;7.842;2023-02-11T06:49:00;18.30;;;8.57;;
17696;SDS011;8967;47.984;7.842;2023-02-11T06:51:27;16.97;;;7.87;;
17696;SDS011;8967;47.984;7.842;2023-02-11T06:53:54;15.90;;;7.23;;
17696;SDS011;8967;47.984;7.842;2023-02-11T06:56:22;14.00;;;6.87;;
17696;SDS011;8967;47.984;7.842;2023-02-11T06:58:51;17.10;;;7.67;;
17696;SDS011;8967;47.984;7.842;2023-02-11T07:01:19;18.20;;;7.13;;
17696;SDS011;8967;47.984;7.842;2023-02-11T07:03:50;13.33;;;7.23;;
17696;SDS011;8967;47.984;7.842;2023-02-11T07:06:19;15.67;;;7.20;;
17696;SDS011;8967;47.984;7.842;2023-02-11T07:08:48;18.60;;;8.20;;
17696;SDS011;8967;47.984;7.842;2023-02-11T07:11:16;16.77;;;8.17;;
17696;SDS011;8967;47.984;7.842;2023-02-11T07:13:46;20.27;;;9.30;;
17696;SDS011;8967;47.984;7.842;2023-02-11T07:16:14;24.30;;;9.33;;
17696;SDS011;8967;47.984;7.842;2023-02-11T07:18:44;19.27;;;9.40;;
17696;SDS011;8967;47.984;7.842;2023-02-11T07:21:13;16.63;;;8.90;;
17696;SDS011;8967;47.984;7.842;2023-02-11T07:23:41;18.20;;;8.73;;
17696;SDS011;8967;47.984;7.842;2023-02-11T07:30:00;16.90;;;8.03;;
17696;SDS011;8967;47.984;7.842;2023-02-11T07:32:27;19.33;;;8.80;;
17696;SDS011;8967;47.984;7.842;2023-02-11T07:34:53;18.53;;;8.97;;
17696;SDS011;8967;47.984;7.842;2023-02-11T07:37:20;16.10;;;8.70;;
17696;SDS011;8967;47.984;7.842;2023-02-11T07:39:47;16.87;;;9.00;;
17696;SDS011;8967;47.984;7.842;2023-02-11T07:42:14;18.50;;;9.67;;
17696;SDS011;8967;47.984;7.842;2023-02-11T07:44:44;21.47;;;9.50;;
17696;SDS011;8967;47.984;7.842;2023-02-11T07:47:15;19.53;;;9.67;;
17696;SDS011;8967;47.984;7.842;2023-02-11T07:49:42;19.87;;;9.90;;
17696;SDS011;8967;47.984;7.842;2023-02-11T07:52:09;22.60;;;11.27;;
17696;SDS011;8967;47.984;7.842;2023-02-11T08:57:35;23.23;;;12.50;;
17696;SDS011;8967;47.984;7.842;2023-02-11T09:00:32;29.93;;;13.80;;
17696;SDS011;8967;47.984;7.842;2023-02-11T09:03:25;31.53;;;13.90;;
17696;SDS011;8967;47.984;7.842;2023-02-11T09:06:11;32.00;;;14.40;;
17696;SDS011;8967;47.984;7.842;2023-02-11T09:08:56;27.67;;;12.73;;
17696;SDS011;8967;47.984;7.842;2023-02-11T09:38:39;39.50;;;17.73;;
17696;SDS011;8967;47.984;7.842;2023-02-11T09:44:49;48.07;;;20.60;;
17696;SDS011;8967;47.984;7.842;2023-02-11T09:47:20;48.13;;;22.37;;
17696;SDS011;8967;47.984;7.842;2023-02-11T09:49:51;38.97;;;19.47;;
17696;SDS011;8967;47.984;7.842;2023-02-11T09:52:24;40.90;;;19.50;;
17696;SDS011;8967;47.984;7.842;2023-02-11T09:55:05;38.23;;;18.17;;
17696;SDS011;8967;47.984;7.842;2023-02-11T09:57:44;38.50;;;18.90;;
17696;SDS011;8967;47.984;7.842;2023-02-11T10:00:15;35.53;;;19.10;;
17696;SDS011;8967;47.984;7.842;2023-02-11T10:02:55;44.60;;;21.83;;
17696;SDS011;8967;47.984;7.842;2023-02-11T10:05:48;41.93;;;20.07;;
17696;SDS011;8967;47.984;7.842;2023-02-11T10:08:40;44.20;;;20.33;;
17696;SDS011;8967;47.984;7.842;2023-02-11T10:11:17;39.40;;;19.50;;
17696;SDS011;8967;47.984;7.842;2023-02-11T10:13:51;38.93;;;18.50;;
17696;SDS011;8967;47.984;7.842;2023-02-11T10:16:28;36.73;;;17.37;;
17696;SDS011;8967;47.984;7.842;2023-02-11T10:19:13;33.13;;;17.47;;
17696;SDS011;8967;47.984;7.842;2023-02-11T10:21:54;33.67;;;17.13;;
17696;SDS011;8967;47.984;7.842;2023-02-11T10:24:25;38.83;;;17.23;;
17696;SDS011;8967;47.984;7.842;2023-02-11T10:26:54;32.63;;;16.27;;
17696;SDS011;8967;47.984;7.842;2023-02-11T10:29:32;33.53;;;17.03;;
17696;SDS011;8967;47.984;7.842;2023-02-11T10:32:03;40.33;;;18.57;;
17696;SDS011;8967;47.984;7.842;2023-02-11T10:34:32;34.00;;;16.07;;
17696;SDS011;8967;47.984;7.842;2023-02-11T10:37:05;35.67;;;17.40;;
17696;SDS011;8967;47.984;7.842;2023-02-11T10:39:32;35.17;;;15.83;;
17696;SDS011;8967;47.984;7.842;2023-02-11T10:42:01;36.47;;;17.73;;
17696;SDS011;8967;47.984;7.842;2023-02-11T10:44:31;35.63;;;17.30;;
17696;SDS011;8967;47.984;7.842;2023-02-11T10:47:02;35.30;;;17.53;;
17696;SDS011;8967;47.984;7.842;2023-02-11T10:49:37;44.57;;;23.13;;
17696;SDS011;8967;47.984;7.842;2023-02-11T10:52:12;34.97;;;19.33;;
17696;SDS011;8967;47.984;7.842;2023-02-11T10:54:40;44.97;;;21.27;;
17696;SDS011;8967;47.984;7.842;2023-02-11T10:57:11;45.90;;;22.30;;
17696;SDS011;8967;47.984;7.842;2023-02-11T10:59:44;39.10;;;19.47;;
17696;SDS011;8967;47.984;7.842;2023-02-11T11:02:18;49.40;;;24.30;;
17696;SDS011;8967;47.984;7.842;2023-02-11T11:04:48;41.20;;;21.20;;
17696;SDS011;8967;47.984;7.842;2023-02-11T11:07:23;43.60;;;20.63;;
17696;SDS011;8967;47.984;7.842;2023-02-11T11:09:52;40.47;;;19.07;;
17696;SDS011;8967;47.984;7.842;2023-02-11T11:12:28;43.47;;;23.37;;
17696;SDS011;8967;47.984;7.842;2023-02-11T11:14:58;47.67;;;24.07;;
17696;SDS011;8967;47.984;7.842;2023-02-11T11:17:27;57.43;;;26.23;;
17696;SDS011;8967;47.984;7.842;2023-02-11T11:20:02;48.77;;;21.43;;
17696;SDS011;8967;47.984;7.842;2023-02-11T11:22:40;42.10;;;22.30;;
17696;SDS011;8967;47.984;7.842;2023-02-11T11:25:19;45.90;;;22.33;;
17696;SDS011;8967;47.984;7.842;2023-02-11T11:27:49;44.03;;;20.57;;
17696;SDS011;8967;47.984;7.842;2023-02-11T11:30:16;40.37;;;19.43;;
17696;SDS011;8967;47.984;7.842;2023-02-11T11:32:44;39.07;;;19.70;;
17696;SDS011;8967;47.984;7.842;2023-02-11T11:35:20;37.50;;;18.00;;
17696;SDS011;8967;47.984;7.842;2023-02-11T11:37:51;35.87;;;17.90;;
17696;SDS011;8967;47.984;7.842;2023-02-11T11:40:21;40.17;;;21.40;;
17696;SDS011;8967;47.984;7.842;2023-02-11T11:43:03;35.30;;;17.93;;
17696;SDS011;8967;47.984;7.842;2023-02-11T11:45:38;38.00;;;19.43;;
17696;SDS011;8967;47.984;7.842;2023-02-11T11:48:18;34.30;;;16.97;;
17696;SDS011;8967;47.984;7.842;2023-02-11T11:50:51;36.83;;;18.63;;
17696;SDS011;8967;47.984;7.842;2023-02-11T11:53:22;35.57;;;18.53;;
17696;SDS011;8967;47.984;7.842;2023-02-11T11:55:56;32.77;;;17.37;;
17696;SDS011;8967;47.984;7.842;2023-02-11T11:58:30;47.90;;;23.00;;
17696;SDS011;8967;47.984;7.842;2023-02-11T12:01:03;45.37;;;22.60;;
17696;SDS011;8967;47.984;7.842;2023-02-11T12:06:40;36.63;;;18.40;;
17696;SDS011;8967;47.984;7.842;2023-02-11T12:09:19;37.43;;;18.93;;
17696;SDS011;8967;47.984;7.842;2023-02-11T12:11:56;39.30;;;18.13;;
17696;SDS011;8967;47.984;7.842;2023-02-11T12:14:45;38.63;;;19.17;;
17696;SDS011;8967;47.984;7.842;2023-02-11T12:17:20;37.10;;;19.10;;
17696;SDS011;8967;47.984;7.842;2023-02-11T12:20:04;32.37;;;16.37;;
17696;SDS011;8967;47.984;7.842;2023-02-11T12:22:45;32.73;;;16.93;;
17696;SDS011;8967;47.984;7.842;2023-02-11T12:25:24;32.73;;;16.53;;
17696;SDS011;8967;47.984;7.842;2023-02-11T12:27:59;33.93;;;16.00;;
17696;SDS011;8967;47.984;7.842;2023-02-11T12:30:43;31.83;;;15.90;;
17696;SDS011;8967;47.984;7.842;2023-02-11T12:33:19;32.23;;;15.83;;
17696;SDS011;8967;47.984;7.842;2023-02-11T12:36:01;27.90;;;14.90;;
17696;SDS011;8967;47.984;7.842;2023-02-11T12:38:42;27.83;;;14.70;;
17696;SDS011;8967;47.984;7.842;2023-02-11T12:41:37;38.17;;;17.17;;
17696;SDS011;8967;47.984;7.842;2023-02-11T12:44:34;31.93;;;16.00;;
17696;SDS011;8967;47.984;7.842;2023-02-11T12:47:10;29.60;;;14.70;;
17696;SDS011;8967;47.984;7.842;2023-02-11T12:50:01;34.80;;;16.67;;
17696;SDS011;8967;47.984;7.842;2023-02-11T12:52:41;31.43;;;15.43;;
17696;SDS011;8967;47.984;7.842;2023-02-11T12:55:24;29.17;;;13.97;;
17696;SDS011;8967;47.984;7.842;2023-02-11T12:57:53;33.00;;;14.77;;
17696;SDS011;8967;47.984;7.842;2023-02-11T13:00:23;36.37;;;16.50;;
17696;SDS011;8967;47.984;7.842;2023-02-11T13:02:58;41.55;;;19.70;;
17696;SDS011;8967;47.984;7.842;2023-02-11T13:05:30;39.53;;;18.83;;
17696;SDS011;8967;47.984;7.842;2023-02-11T13:08:03;31.27;;;15.00;;
17696;SDS011;8967;47.984;7.842;2023-02-11T13:10:37;28.73;;;14.17;;
17696;SDS011;8967;47.984;7.842;2023-02-11T13:13:10;34.05;;;15.50;;
17696;SDS011;8967;47.984;7.842;2023-02-11T13:15:44;32.27;;;16.03;;
17696;SDS011;8967;47.984;7.842;2023-02-11T13:18:21;35.20;;;16.07;;
17696;SDS011;8967;47.984;7.842;2023-02-11T13:21:24;32.42;;;14.30;;
17696;SDS011;8967;47.984;7.842;2023-02-11T13:24:11;34.10;;;15.90;;
17696;SDS011;8967;47.984;7.842;2023-02-11T13:26:48;34.17;;;16.93;;
17696;SDS011;8967;47.984;7.842;2023-02-11T13:29:25;35.93;;;15.53;;
17696;SDS011;8967;47.984;7.842;2023-02-11T13:32:04;37.40;;;17.03;;
17696;SDS011;8967;47.984;7.842;2023-02-11T13:34:55;37.30;;;16.07;;
17696;SDS011;8967;47.984;7.842;2023-02-11T13:37:24;37.67;;;17.60;;
17696;SDS011;8967;47.984;7.842;2023-02-11T13:39:56;35.90;;;16.93;;
17696;SDS011;8967;47.984;7.842;2023-02-11T13:42:24;30.92;;;15.13;;
17696;SDS011;8967;47.984;7.842;2023-02-11T13:44:52;31.27;;;14.60;;
17696;SDS011;8967;47.984;7.842;2023-02-11T13:47:24;29.85;;;14.93;;
17696;SDS011;8967;47.984;7.842;2023-02-11T13:49:56;29.17;;;15.00;;
17696;SDS011;8967;47.984;7.842;2023-02-11T13:52:26;33.65;;;16.58;;
17696;SDS011;8967;47.984;7.842;2023-02-11T13:54:55;35.28;;;15.23;;
17696;SDS011;8967;47.984;7.842;2023-02-11T13:57:29;30.55;;;13.48;;
17696;SDS011;8967;47.984;7.842;2023-02-11T13:59:59;25.42;;;12.95;;
17696;SDS011;8967;47.984;7.842;2023-02-11T14:02:29;27.40;;;13.68;;
17696;SDS011;8967;47.984;7.842;2023-02-11T14:05:27;29.35;;;13.57;;
17696;SDS011;8967;47.984;7.842;2023-02-11T14:08:14;25.05;;;12.30;;
17696;SDS011;8967;47.984;7.842;2023-02-11T14:11:04;29.50;;;13.35;;
17696;SDS011;8967;47.984;7.842;2023-02-11T14:14:02;26.83;;;12.57;;
17696;SDS011;8967;47.984;7.842;2023-02-11T14:19:48;28.88;;;12.52;;
17696;SDS011;8967;47.984;7.842;2023-02-11T14:22:18;28.05;;;10.55;;
17696;SDS011;8967;47.984;7.842;2023-02-11T14:24:51;25.50;;;12.18;;
17696;SDS011;8967;47.984;7.842;2023-02-11T14:27:22;27.70;;;11.75;;
17696;SDS011;8967;47.984;7.842;2023-02-11T14:30:01;26.38;;;12.50;;
17696;SDS011;8967;47.984;7.842;2023-02-11T14:32:46;22.65;;;11.00;;
17696;SDS011;8967;47.984;7.842;2023-02-11T14:35:27;25.25;;;11.60;;
17696;SDS011;8967;47.984;7.842;2023-02-11T14:38:03;23.05;;;10.73;;
17696;SDS011;8967;47.984;7.842;2023-02-11T14:40:39;26.77;;;12.32;;
17696;SDS011;8967;47.984;7.842;2023-02-11T14:43:15;24.38;;;10.88;;
17696;SDS011;8967;47.984;7.842;2023-02-11T14:45:48;26.58;;;10.35;;
17696;SDS011;8967;47.984;7.842;2023-02-11T14:48:17;21.27;;;9.23;;
17696;SDS011;8967;47.984;7.842;2023-02-11T14:50:47;20.05;;;8.85;;
17696;SDS011;8967;47.984;7.842;2023-02-11T14:53:18;18.50;;;8.77;;
17696;SDS011;8967;47.984;7.842;2023-02-11T14:55:48;17.90;;;8.23;;
17696;SDS011;8967;47.984;7.842;2023-02-11T14:58:17;19.20;;;7.93;;
17696;SDS011;8967;47.984;7.842;2023-02-11T15:00:50;19.75;;;8.93;;
17696;SDS011;8967;47.984;7.842;2023-02-11T15:03:33;15.68;;;8.07;;
17696;SDS011;8967;47.984;7.842;2023-02-11T15:06:05;17.25;;;7.70;;
17696;SDS011;8967;47.984;7.842;2023-02-11T15:08:43;19.90;;;7.82;;
17696;SDS011;8967;47.984;7.842;2023-02-11T15:11:12;15.45;;;7.03;;
17696;SDS011;8967;47.984;7.842;2023-02-11T15:13:43;17.73;;;8.73;;
17696;SDS011;8967;47.984;7.842;2023-02-11T15:16:14;14.40;;;7.53;;
17696;SDS011;8967;47.984;7.842;2023-02-11T15:18:47;15.40;;;6.80;;
17696;SDS011;8967;47.984;7.842;2023-02-11T15:21:19;22.42;;;7.50;;
17696;SDS011;8967;47.984;7.842;2023-02-11T15:23:55;15.48;;;7.00;;
17696;SDS011;8967;47.984;7.842;2023-02-11T15:26:26;15.38;;;7.50;;
17696;SDS011;8967;47.984;7.842;2023-02-11T15:28:54;13.10;;;6.50;;
17696;SDS011;8967;47.984;7.842;2023-02-11T15:31:22;16.27;;;7.20;;
17696;SDS011;8967;47.984;7.842;2023-02-11T15:33:50;15.02;;;8.00;;
17696;SDS011;8967;47.984;7.842;2023-02-11T15:36:21;14.75;;;7.53;;
17696;SDS011;8967;47.984;7.842;2023-02-11T15:39:26;20.83;;;10.70;;
17696;SDS011;8967;47.984;7.842;2023-02-11T15:42:17;17.63;;;8.60;;
17696;SDS011;8967;47.984;7.842;2023-02-11T15:44:46;16.92;;;8.68;;
17696;SDS011;8967;47.984;7.842;2023-02-11T15:47:16;15.02;;;7.53;;
17696;SDS011;8967;47.984;7.842;2023-02-11T15:49:46;18.02;;;8.30;;
17696;SDS011;8967;47.984;7.842;2023-02-11T15:52:13;19.63;;;8.73;;
17696;SDS011;8967;47.984;7.842;2023-02-11T15:54:48;16.92;;;8.30;;
17696;SDS011;8967;47.984;7.842;2023-02-11T15:57:18;17.75;;;8.70;;
17696;SDS011;8967;47.984;7.842;2023-02-11T15:59:47;15.27;;;7.72;;
17696;SDS011;8967;47.984;7.842;2023-02-11T16:02:16;22.70;;;8.82;;
17696;SDS011;8967;47.984;7.842;2023-02-11T16:04:49;19.60;;;8.45;;
17696;SDS011;8967;47.984;7.842;2023-02-11T16:07:38;19.95;;;9.63;;
17696;SDS011;8967;47.984;7.842;2023-02-11T16:10:20;21.58;;;10.00;;
17696;SDS011;8967;47.984;7.842;2023-02-11T16:12:49;17.95;;;8.07;;
17696;SDS011;8967;47.984;7.842;2023-02-11T16:15:36;18.83;;;9.13;;
17696;SDS011;8967;47.984;7.842;2023-02-11T16:18:12;21.17;;;9.65;;
17696;SDS011;8967;47.984;7.842;2023-02-11T16:21:00;18.10;;;8.88;;
17696;SDS011;8967;47.984;7.842;2023-02-11T16:23:30;31.20;;;13.35;;
17696;SDS011;8967;47.984;7.842;2023-02-11T16:26:02;24.17;;;11.68;;
17696;SDS011;8967;47.984;7.842;2023-02-11T16:28:32;25.33;;;12.63;;
17696;SDS011;8967;47.984;7.842;2023-02-11T16:31:00;25.87;;;11.87;;
17696;SDS011;8967;47.984;7.842;2023-02-11T16:33:27;26.17;;;12.97;;
17696;SDS011;8967;47.984;7.842;2023-02-11T16:35:54;28.53;;;13.27;;
17696;SDS011;8967;47.984;7.842;2023-02-11T16:38:24;26.15;;;12.48;;
17696;SDS011;8967;47.984;7.842;2023-02-11T16:40:51;24.25;;;12.70;;
17696;SDS011;8967;47.984;7.842;2023-02-11T16:43:19;26.73;;;13.80;;
17696;SDS011;8967;47.984;7.842;2023-02-11T16:45:46;25.70;;;13.40;;
17696;SDS011;8967;47.984;7.842;2023-02-11T16:48:14;23.63;;;12.03;;
17696;SDS011;8967;47.984;7.842;2023-02-11T16:50:43;22.07;;;11.83;;
17696;SDS011;8967;47.984;7.842;2023-02-11T16:53:12;23.97;;;12.27;;
17696;SDS011;8967;47.984;7.842;2023-02-11T16:55:43;25.17;;;12.63;;
17696;SDS011;8967;47.984;7.842;2023-02-11T16:58:10;25.63;;;11.93;;
17696;SDS011;8967;47.984;7.842;2023-02-11T17:00:38;24.77;;;11.87;;
17696;SDS011;8967;47.984;7.842;2023-02-11T17:03:07;23.43;;;12.33;;